Potter, Nebraska
Current Conditions -  °F | °C
As of 6:55 PM on Saturday 25 Oct 2014 (Local Time) from KIBM Reporting Station
Clear Clear  
Wind Chill: 55°   Ceiling: Unl
Heat Index: 55°   Visibility: 10mi
Dew Point: 31°   Wind: 7mph
Humidity: 40%   Direction: 140°SE
Pressure: 30.02"   Gusts: NA
Location:  41.22°N, 103.32°W
Report Text: KIBM 260055Z AUTO 14006KT 10SM CLR 13/00 A3002 RMK AO2 T01291003
Loading
Personal Weather Stations






























Interactive Weather Map New forecast layout! Learn more

10-Day Weather Forecast

Advertisements
Track Severe Weather on mobile